sensor_id;sensor_type;location;lat;lon;timestamp;temperature;humidity
51579;DHT22;47998;53.242;6.386;2023-02-18T00:01:42;7.10;99.90
51579;DHT22;47998;53.242;6.386;2023-02-18T00:04:08;7.10;99.90
51579;DHT22;47998;53.242;6.386;2023-02-18T00:06:35;7.10;99.90
51579;DHT22;47998;53.242;6.386;2023-02-18T00:09:01;7.10;99.90
51579;DHT22;47998;53.242;6.386;2023-02-18T00:11:28;7.10;89.30
51579;DHT22;47998;53.242;6.386;2023-02-18T00:13:57;7.10;81.60
51579;DHT22;47998;53.242;6.386;2023-02-18T00:16:24;7.20;85.00
51579;DHT22;47998;53.242;6.386;2023-02-18T00:18:53;7.20;56.20
51579;DHT22;47998;53.242;6.386;2023-02-18T00:21:19;7.20;27.60
51579;DHT22;47998;53.242;6.386;2023-02-18T00:23:44;7.20;10.70
51579;DHT22;47998;53.242;6.386;2023-02-18T00:26:13;7.30;77.90
51579;DHT22;47998;53.242;6.386;2023-02-18T00:28:39;7.20;61.40
51579;DHT22;47998;53.242;6.386;2023-02-18T00:31:13;7.20;19.50
51579;DHT22;47998;53.242;6.386;2023-02-18T00:33:40;7.20;22.80
51579;DHT22;47998;53.242;6.386;2023-02-18T00:36:09;7.20;28.20
51579;DHT22;47998;53.242;6.386;2023-02-18T00:38:35;7.20;45.30
51579;DHT22;47998;53.242;6.386;2023-02-18T00:41:00;7.10;88.00
51579;DHT22;47998;53.242;6.386;2023-02-18T00:43:26;7.10;77.90
51579;DHT22;47998;53.242;6.386;2023-02-18T00:45:52;7.10;69.20
51579;DHT22;47998;53.242;6.386;2023-02-18T00:48:18;7.00;92.20
51579;DHT22;47998;53.242;6.386;2023-02-18T00:50:44;7.00;99.90
51579;DHT22;47998;53.242;6.386;2023-02-18T00:53:10;7.00;99.90
51579;DHT22;47998;53.242;6.386;2023-02-18T00:55:39;6.90;99.90
51579;DHT22;47998;53.242;6.386;2023-02-18T00:58:05;6.90;99.90
51579;DHT22;47998;53.242;6.386;2023-02-18T01:00:31;6.90;99.90
51579;DHT22;47998;53.242;6.386;2023-02-18T01:02:57;6.80;99.90
51579;DHT22;47998;53.242;6.386;2023-02-18T01:05:22;6.80;99.90
51579;DHT22;47998;53.242;6.386;2023-02-18T01:07:48;6.80;99.90
51579;DHT22;47998;53.242;6.386;2023-02-18T01:10:14;6.80;99.90
51579;DHT22;47998;53.242;6.386;2023-02-18T01:12:40;6.80;99.90
51579;DHT22;47998;53.242;6.386;2023-02-18T01:15:06;6.80;99.90
51579;DHT22;47998;53.242;6.386;2023-02-18T01:17:32;6.80;99.90
51579;DHT22;47998;53.242;6.386;2023-02-18T01:19:58;6.90;99.90
51579;DHT22;47998;53.242;6.386;2023-02-18T01:22:24;7.00;99.90
51579;DHT22;47998;53.242;6.386;2023-02-18T01:24:50;7.00;99.90
51579;DHT22;47998;53.242;6.386;2023-02-18T01:27:16;7.10;99.90
51579;DHT22;47998;53.242;6.386;2023-02-18T01:29:41;7.10;99.90
51579;DHT22;47998;53.242;6.386;2023-02-18T01:32:07;7.20;99.90
51579;DHT22;47998;53.242;6.386;2023-02-18T01:34:33;7.10;99.90
51579;DHT22;47998;53.242;6.386;2023-02-18T01:36:59;7.20;99.90
51579;DHT22;47998;53.242;6.386;2023-02-18T01:39:24;7.20;99.90
51579;DHT22;47998;53.242;6.386;2023-02-18T01:41:50;7.20;99.90
51579;DHT22;47998;53.242;6.386;2023-02-18T01:44:23;7.30;99.90
51579;DHT22;47998;53.242;6.386;2023-02-18T01:46:49;7.20;99.90
51579;DHT22;47998;53.242;6.386;2023-02-18T01:49:18;7.30;99.90
51579;DHT22;47998;53.242;6.386;2023-02-18T01:51:51;7.40;99.90
51579;DHT22;47998;53.242;6.386;2023-02-18T01:54:27;7.40;99.90
51579;DHT22;47998;53.242;6.386;2023-02-18T01:57:13;7.40;99.90
51579;DHT22;47998;53.242;6.386;2023-02-18T01:59:48;7.40;99.90
51579;DHT22;47998;53.242;6.386;2023-02-18T02:02:18;7.40;99.90
51579;DHT22;47998;53.242;6.386;2023-02-18T02:04:44;7.40;99.90
51579;DHT22;47998;53.242;6.386;2023-02-18T02:07:10;7.50;99.90
51579;DHT22;47998;53.242;6.386;2023-02-18T02:09:38;7.50;99.90
51579;DHT22;47998;53.242;6.386;2023-02-18T02:15:31;7.50;99.90
51579;DHT22;47998;53.242;6.386;2023-02-18T02:18:15;7.50;99.90
51579;DHT22;47998;53.242;6.386;2023-02-18T02:34:29;7.50;99.90
51579;DHT22;47998;53.242;6.386;2023-02-18T02:45:28;7.50;99.90
51579;DHT22;47998;53.242;6.386;2023-02-18T02:48:06;7.50;99.90
51579;DHT22;47998;53.242;6.386;2023-02-18T02:53:15;7.60;99.90
51579;DHT22;47998;53.242;6.386;2023-02-18T02:55:45;7.60;99.90
51579;DHT22;47998;53.242;6.386;2023-02-18T02:58:15;7.60;99.90
51579;DHT22;47998;53.242;6.386;2023-02-18T03:12:22;7.40;99.90
51579;DHT22;47998;53.242;6.386;2023-02-18T03:15:06;7.30;99.90
51579;DHT22;47998;53.242;6.386;2023-02-18T03:17:54;7.40;99.90
51579;DHT22;47998;53.242;6.386;2023-02-18T03:20:26;7.40;99.90
51579;DHT22;47998;53.242;6.386;2023-02-18T03:22:53;7.40;99.90
51579;DHT22;47998;53.242;6.386;2023-02-18T03:25:20;7.50;99.90
51579;DHT22;47998;53.242;6.386;2023-02-18T03:27:53;7.50;99.90
51579;DHT22;47998;53.242;6.386;2023-02-18T03:30:27;7.60;99.90
51579;DHT22;47998;53.242;6.386;2023-02-18T03:32:58;7.60;99.90
51579;DHT22;47998;53.242;6.386;2023-02-18T03:35:25;7.70;99.90
51579;DHT22;47998;53.242;6.386;2023-02-18T03:40:52;7.70;99.90
51579;DHT22;47998;53.242;6.386;2023-02-18T03:43:18;7.70;99.90
51579;DHT22;47998;53.242;6.386;2023-02-18T03:45:43;7.80;99.90
51579;DHT22;47998;53.242;6.386;2023-02-18T03:48:09;7.80;99.90
51579;DHT22;47998;53.242;6.386;2023-02-18T03:50:35;7.80;99.90
51579;DHT22;47998;53.242;6.386;2023-02-18T03:53:00;7.80;99.90
51579;DHT22;47998;53.242;6.386;2023-02-18T03:55:26;7.80;99.90
51579;DHT22;47998;53.242;6.386;2023-02-18T03:57:52;7.80;99.90
51579;DHT22;47998;53.242;6.386;2023-02-18T04:00:18;7.90;99.90
51579;DHT22;47998;53.242;6.386;2023-02-18T04:02:44;7.90;99.90
51579;DHT22;47998;53.242;6.386;2023-02-18T04:05:11;7.90;99.90
51579;DHT22;47998;53.242;6.386;2023-02-18T04:07:37;7.90;99.90
51579;DHT22;47998;53.242;6.386;2023-02-18T04:10:04;7.70;99.90
51579;DHT22;47998;53.242;6.386;2023-02-18T04:12:30;7.80;99.90
51579;DHT22;47998;53.242;6.386;2023-02-18T04:14:55;7.70;99.90
51579;DHT22;47998;53.242;6.386;2023-02-18T04:17:21;7.70;99.90
51579;DHT22;47998;53.242;6.386;2023-02-18T04:19:47;7.70;99.90
51579;DHT22;47998;53.242;6.386;2023-02-18T04:22:12;7.70;99.90
51579;DHT22;47998;53.242;6.386;2023-02-18T04:24:38;7.70;99.90
51579;DHT22;47998;53.242;6.386;2023-02-18T04:27:04;7.70;99.90
51579;DHT22;47998;53.242;6.386;2023-02-18T04:29:29;7.50;99.90
51579;DHT22;47998;53.242;6.386;2023-02-18T04:31:55;7.60;99.90
51579;DHT22;47998;53.242;6.386;2023-02-18T04:34:21;7.60;99.90
51579;DHT22;47998;53.242;6.386;2023-02-18T04:36:47;7.40;99.90
51579;DHT22;47998;53.242;6.386;2023-02-18T04:39:12;7.50;99.90
51579;DHT22;47998;53.242;6.386;2023-02-18T04:41:38;7.40;99.90
51579;DHT22;47998;53.242;6.386;2023-02-18T04:44:04;7.60;99.90
51579;DHT22;47998;53.242;6.386;2023-02-18T04:46:31;7.60;99.90
51579;DHT22;47998;53.242;6.386;2023-02-18T04:48:57;7.50;99.90
51579;DHT22;47998;53.242;6.386;2023-02-18T04:51:23;7.50;99.90
51579;DHT22;47998;53.242;6.386;2023-02-18T04:53:48;7.30;99.90
51579;DHT22;47998;53.242;6.386;2023-02-18T04:56:14;7.30;99.90
51579;DHT22;47998;53.242;6.386;2023-02-18T04:58:40;7.30;99.90
51579;DHT22;47998;53.242;6.386;2023-02-18T05:01:06;7.60;99.90
51579;DHT22;47998;53.242;6.386;2023-02-18T05:03:32;7.50;99.90
51579;DHT22;47998;53.242;6.386;2023-02-18T05:05:58;7.30;99.90
51579;DHT22;47998;53.242;6.386;2023-02-18T05:08:24;7.40;99.90
51579;DHT22;47998;53.242;6.386;2023-02-18T05:10:50;7.40;99.90
51579;DHT22;47998;53.242;6.386;2023-02-18T05:13:16;7.80;99.90
51579;DHT22;47998;53.242;6.386;2023-02-18T05:15:41;7.80;99.90
51579;DHT22;47998;53.242;6.386;2023-02-18T05:18:07;7.80;99.90
51579;DHT22;47998;53.242;6.386;2023-02-18T05:20:33;7.80;99.90
51579;DHT22;47998;53.242;6.386;2023-02-18T05:22:59;8.00;99.90
51579;DHT22;47998;53.242;6.386;2023-02-18T05:25:25;7.60;99.90
51579;DHT22;47998;53.242;6.386;2023-02-18T05:27:50;7.40;99.90
51579;DHT22;47998;53.242;6.386;2023-02-18T05:30:16;7.40;99.90
51579;DHT22;47998;53.242;6.386;2023-02-18T05:32:42;7.40;99.90
51579;DHT22;47998;53.242;6.386;2023-02-18T05:35:08;7.90;99.90
51579;DHT22;47998;53.242;6.386;2023-02-18T05:37:34;8.10;99.90
51579;DHT22;47998;53.242;6.386;2023-02-18T05:39:59;8.10;99.90
51579;DHT22;47998;53.242;6.386;2023-02-18T05:42:25;7.50;99.90
51579;DHT22;47998;53.242;6.386;2023-02-18T05:44:51;7.60;99.90
51579;DHT22;47998;53.242;6.386;2023-02-18T05:47:19;8.10;99.90
51579;DHT22;47998;53.242;6.386;2023-02-18T05:49:45;8.30;99.90
51579;DHT22;47998;53.242;6.386;2023-02-18T05:52:11;8.10;99.90
51579;DHT22;47998;53.242;6.386;2023-02-18T05:54:37;7.70;99.90
51579;DHT22;47998;53.242;6.386;2023-02-18T05:57:03;7.80;99.90
51579;DHT22;47998;53.242;6.386;2023-02-18T05:59:30;8.70;99.90
51579;DHT22;47998;53.242;6.386;2023-02-18T06:01:56;7.80;99.90
51579;DHT22;47998;53.242;6.386;2023-02-18T06:04:22;7.90;99.90
51579;DHT22;47998;53.242;6.386;2023-02-18T06:06:47;7.80;99.90
51579;DHT22;47998;53.242;6.386;2023-02-18T06:09:16;8.30;99.90
51579;DHT22;47998;53.242;6.386;2023-02-18T06:11:41;8.10;99.90
51579;DHT22;47998;53.242;6.386;2023-02-18T06:14:07;7.80;99.90
51579;DHT22;47998;53.242;6.386;2023-02-18T06:16:33;7.70;99.90
51579;DHT22;47998;53.242;6.386;2023-02-18T06:18:59;9.40;99.90
51579;DHT22;47998;53.242;6.386;2023-02-18T06:21:24;7.80;99.90
51579;DHT22;47998;53.242;6.386;2023-02-18T06:23:53;9.50;99.90
51579;DHT22;47998;53.242;6.386;2023-02-18T06:26:21;9.50;99.90
51579;DHT22;47998;53.242;6.386;2023-02-18T06:28:47;9.60;99.90
51579;DHT22;47998;53.242;6.386;2023-02-18T06:31:12;9.00;99.90
51579;DHT22;47998;53.242;6.386;2023-02-18T06:33:38;8.50;99.90
51579;DHT22;47998;53.242;6.386;2023-02-18T06:36:06;9.50;99.90
51579;DHT22;47998;53.242;6.386;2023-02-18T06:38:34;8.10;99.90
51579;DHT22;47998;53.242;6.386;2023-02-18T06:41:00;9.10;99.90
51579;DHT22;47998;53.242;6.386;2023-02-18T06:43:25;9.70;99.90
51579;DHT22;47998;53.242;6.386;2023-02-18T06:45:51;7.90;99.90
51579;DHT22;47998;53.242;6.386;2023-02-18T06:48:17;8.60;99.90
51579;DHT22;47998;53.242;6.386;2023-02-18T06:50:43;8.20;99.90
51579;DHT22;47998;53.242;6.386;2023-02-18T06:53:09;8.00;99.90
51579;DHT22;47998;53.242;6.386;2023-02-18T06:55:34;8.00;99.90
51579;DHT22;47998;53.242;6.386;2023-02-18T06:58:00;10.50;99.90
51579;DHT22;47998;53.242;6.386;2023-02-18T07:00:26;10.50;99.90
51579;DHT22;47998;53.242;6.386;2023-02-18T07:02:51;9.00;99.90
51579;DHT22;47998;53.242;6.386;2023-02-18T07:05:17;10.60;99.90
51579;DHT22;47998;53.242;6.386;2023-02-18T07:07:43;9.30;99.90
51579;DHT22;47998;53.242;6.386;2023-02-18T07:10:09;9.60;99.90
51579;DHT22;47998;53.242;6.386;2023-02-18T07:12:35;9.60;99.90
51579;DHT22;47998;53.242;6.386;2023-02-18T07:15:00;10.90;99.90
51579;DHT22;47998;53.242;6.386;2023-02-18T07:17:26;9.00;99.90
51579;DHT22;47998;53.242;6.386;2023-02-18T07:19:52;8.90;99.90
51579;DHT22;47998;53.242;6.386;2023-02-18T07:22:20;8.60;99.90
51579;DHT22;47998;53.242;6.386;2023-02-18T07:24:52;10.50;99.90
51579;DHT22;47998;53.242;6.386;2023-02-18T07:27:19;10.60;99.90
51579;DHT22;47998;53.242;6.386;2023-02-18T07:29:47;10.40;99.90
51579;DHT22;47998;53.242;6.386;2023-02-18T07:32:14;8.40;99.90
51579;DHT22;47998;53.242;6.386;2023-02-18T07:34:41;10.20;99.90
51579;DHT22;47998;53.242;6.386;2023-02-18T07:37:07;8.10;99.90
51579;DHT22;47998;53.242;6.386;2023-02-18T07:39:41;11.20;99.90
51579;DHT22;47998;53.242;6.386;2023-02-18T07:42:08;10.90;99.90
51579;DHT22;47998;53.242;6.386;2023-02-18T07:44:35;8.20;99.90
51579;DHT22;47998;53.242;6.386;2023-02-18T07:47:02;8.80;99.90
51579;DHT22;47998;53.242;6.386;2023-02-18T07:49:28;11.00;99.90
51579;DHT22;47998;53.242;6.386;2023-02-18T07:51:53;9.70;99.90
51579;DHT22;47998;53.242;6.386;2023-02-18T07:54:20;8.50;99.90
51579;DHT22;47998;53.242;6.386;2023-02-18T07:56:46;11.00;99.90
51579;DHT22;47998;53.242;6.386;2023-02-18T07:59:12;10.40;99.90
51579;DHT22;47998;53.242;6.386;2023-02-18T08:01:38;10.50;99.90
51579;DHT22;47998;53.242;6.386;2023-02-18T08:04:05;11.00;99.90
51579;DHT22;47998;53.242;6.386;2023-02-18T08:06:34;8.10;99.90
51579;DHT22;47998;53.242;6.386;2023-02-18T08:09:00;10.70;99.90
51579;DHT22;47998;53.242;6.386;2023-02-18T08:11:26;10.30;99.90
51579;DHT22;47998;53.242;6.386;2023-02-18T08:13:52;8.80;99.90
51579;DHT22;47998;53.242;6.386;2023-02-18T08:16:19;9.10;99.90
51579;DHT22;47998;53.242;6.386;2023-02-18T08:18:45;9.40;99.90
51579;DHT22;47998;53.242;6.386;2023-02-18T08:21:13;10.60;99.90
51579;DHT22;47998;53.242;6.386;2023-02-18T08:23:39;10.60;99.90
51579;DHT22;47998;53.242;6.386;2023-02-18T08:26:05;9.90;99.90
51579;DHT22;47998;53.242;6.386;2023-02-18T08:28:31;10.70;99.90
51579;DHT22;47998;53.242;6.386;2023-02-18T08:30:57;8.70;99.90
51579;DHT22;47998;53.242;6.386;2023-02-18T08:33:23;10.60;99.90
51579;DHT22;47998;53.242;6.386;2023-02-18T08:35:51;10.50;99.90
51579;DHT22;47998;53.242;6.386;2023-02-18T08:38:17;10.50;99.90
51579;DHT22;47998;53.242;6.386;2023-02-18T08:40:43;8.40;99.90
51579;DHT22;47998;53.242;6.386;2023-02-18T08:43:09;8.00;99.90
51579;DHT22;47998;53.242;6.386;2023-02-18T08:45:38;8.10;99.90
51579;DHT22;47998;53.242;6.386;2023-02-18T08:48:05;7.70;99.90
51579;DHT22;47998;53.242;6.386;2023-02-18T08:50:32;8.00;99.90
51579;DHT22;47998;53.242;6.386;2023-02-18T08:52:58;8.00;99.90
51579;DHT22;47998;53.242;6.386;2023-02-18T08:55:29;7.90;99.90
51579;DHT22;47998;53.242;6.386;2023-02-18T08:57:55;7.50;99.90
51579;DHT22;47998;53.242;6.386;2023-02-18T09:00:21;8.80;99.90
51579;DHT22;47998;53.242;6.386;2023-02-18T09:02:47;9.10;99.90
51579;DHT22;47998;53.242;6.386;2023-02-18T09:05:13;11.00;99.90
51579;DHT22;47998;53.242;6.386;2023-02-18T09:07:38;10.10;99.90
51579;DHT22;47998;53.242;6.386;2023-02-18T09:10:06;9.60;99.90
51579;DHT22;47998;53.242;6.386;2023-02-18T09:12:32;7.40;99.90
51579;DHT22;47998;53.242;6.386;2023-02-18T09:14:58;7.90;99.90
51579;DHT22;47998;53.242;6.386;2023-02-18T09:17:25;10.00;99.90
51579;DHT22;47998;53.242;6.386;2023-02-18T09:19:51;7.50;99.90
51579;DHT22;47998;53.242;6.386;2023-02-18T09:22:18;7.80;99.90
51579;DHT22;47998;53.242;6.386;2023-02-18T09:24:44;10.10;99.90
51579;DHT22;47998;53.242;6.386;2023-02-18T09:27:10;10.20;99.90
51579;DHT22;47998;53.242;6.386;2023-02-18T09:29:40;9.20;99.90
51579;DHT22;47998;53.242;6.386;2023-02-18T09:32:07;7.90;99.90
51579;DHT22;47998;53.242;6.386;2023-02-18T09:34:33;9.10;99.90
51579;DHT22;47998;53.242;6.386;2023-02-18T09:37:01;8.10;99.90
51579;DHT22;47998;53.242;6.386;2023-02-18T09:39:27;7.90;99.90
51579;DHT22;47998;53.242;6.386;2023-02-18T09:41:56;9.70;99.90
51579;DHT22;47998;53.242;6.386;2023-02-18T09:44:39;9.40;99.90
51579;DHT22;47998;53.242;6.386;2023-02-18T09:47:31;7.90;99.90
51579;DHT22;47998;53.242;6.386;2023-02-18T09:52:35;8.60;99.90
51579;DHT22;47998;53.242;6.386;2023-02-18T09:55:28;7.90;99.90
51579;DHT22;47998;53.242;6.386;2023-02-18T09:58:10;10.20;99.90
51579;DHT22;47998;53.242;6.386;2023-02-18T10:00:44;10.30;99.90
51579;DHT22;47998;53.242;6.386;2023-02-18T10:03:21;9.40;99.90
51579;DHT22;47998;53.242;6.386;2023-02-18T10:06:03;10.00;99.90
51579;DHT22;47998;53.242;6.386;2023-02-18T10:08:39;8.80;99.90
51579;DHT22;47998;53.242;6.386;2023-02-18T10:11:16;9.80;99.90
51579;DHT22;47998;53.242;6.386;2023-02-18T10:13:43;8.80;99.90
51579;DHT22;47998;53.242;6.386;2023-02-18T10:16:15;9.00;99.90
51579;DHT22;47998;53.242;6.386;2023-02-18T10:18:43;9.00;99.90
51579;DHT22;47998;53.242;6.386;2023-02-18T10:21:15;9.40;99.90
51579;DHT22;47998;53.242;6.386;2023-02-18T10:23:54;9.10;99.90
51579;DHT22;47998;53.242;6.386;2023-02-18T10:26:26;9.30;99.90
51579;DHT22;47998;53.242;6.386;2023-02-18T10:28:53;9.30;99.90
51579;DHT22;47998;53.242;6.386;2023-02-18T10:31:35;9.30;99.90
51579;DHT22;47998;53.242;6.386;2023-02-18T10:34:20;9.30;99.90
51579;DHT22;47998;53.242;6.386;2023-02-18T10:36:55;9.40;99.90
51579;DHT22;47998;53.242;6.386;2023-02-18T10:42:28;9.50;99.90
51579;DHT22;47998;53.242;6.386;2023-02-18T10:50:26;9.80;99.90
51579;DHT22;47998;53.242;6.386;2023-02-18T10:52:58;9.90;99.90
51579;DHT22;47998;53.242;6.386;2023-02-18T10:55:38;9.80;99.90
51579;DHT22;47998;53.242;6.386;2023-02-18T11:00:51;9.90;99.90
51579;DHT22;47998;53.242;6.386;2023-02-18T11:03:26;9.90;99.90
51579;DHT22;47998;53.242;6.386;2023-02-18T11:05:55;10.00;99.90
51579;DHT22;47998;53.242;6.386;2023-02-18T11:08:27;10.10;99.90
51579;DHT22;47998;53.242;6.386;2023-02-18T11:10:54;10.30;99.90
51579;DHT22;47998;53.242;6.386;2023-02-18T11:13:29;10.50;99.90
51579;DHT22;47998;53.242;6.386;2023-02-18T11:16:01;10.60;99.90
51579;DHT22;47998;53.242;6.386;2023-02-18T11:18:42;10.60;99.90
51579;DHT22;47998;53.242;6.386;2023-02-18T11:21:25;10.60;99.90
51579;DHT22;47998;53.242;6.386;2023-02-18T11:23:54;10.60;99.90
51579;DHT22;47998;53.242;6.386;2023-02-18T11:26:31;10.70;99.90
51579;DHT22;47998;53.242;6.386;2023-02-18T11:29:24;10.70;99.90
51579;DHT22;47998;53.242;6.386;2023-02-18T11:31:53;10.70;99.90
51579;DHT22;47998;53.242;6.386;2023-02-18T11:34:22;10.70;99.90
51579;DHT22;47998;53.242;6.386;2023-02-18T11:36:49;10.80;99.90
51579;DHT22;47998;53.242;6.386;2023-02-18T11:39:23;10.80;99.90
51579;DHT22;47998;53.242;6.386;2023-02-18T11:41:55;10.90;99.90
51579;DHT22;47998;53.242;6.386;2023-02-18T11:44:28;10.90;99.90
51579;DHT22;47998;53.242;6.386;2023-02-18T11:47:01;11.10;99.90
51579;DHT22;47998;53.242;6.386;2023-02-18T11:49:29;11.10;99.90
51579;DHT22;47998;53.242;6.386;2023-02-18T11:52:25;11.10;99.90
51579;DHT22;47998;53.242;6.386;2023-02-18T11:55:22;11.00;99.90
51579;DHT22;47998;53.242;6.386;2023-02-18T11:58:01;11.00;99.90
51579;DHT22;47998;53.242;6.386;2023-02-18T12:00:38;11.10;99.90
51579;DHT22;47998;53.242;6.386;2023-02-18T12:06:03;11.20;99.90
51579;DHT22;47998;53.242;6.386;2023-02-18T12:08:37;11.40;99.90
51579;DHT22;47998;53.242;6.386;2023-02-18T12:11:21;11.30;99.90
51579;DHT22;47998;53.242;6.386;2023-02-18T12:13:55;11.20;99.90
51579;DHT22;47998;53.242;6.386;2023-02-18T12:19:18;11.40;99.90
51579;DHT22;47998;53.242;6.386;2023-02-18T12:22:04;11.40;99.90
51579;DHT22;47998;53.242;6.386;2023-02-18T12:27:32;11.50;99.90
51579;DHT22;47998;53.242;6.386;2023-02-18T12:33:11;11.40;99.90
51579;DHT22;47998;53.242;6.386;2023-02-18T12:55:53;11.30;99.90
51579;DHT22;47998;53.242;6.386;2023-02-18T13:01:27;11.30;99.90
51579;DHT22;47998;53.242;6.386;2023-02-18T13:04:15;11.30;99.90
51579;DHT22;47998;53.242;6.386;2023-02-18T13:07:06;11.20;99.90
51579;DHT22;47998;53.242;6.386;2023-02-18T13:12:27;11.10;99.90
51579;DHT22;47998;53.242;6.386;2023-02-18T13:15:10;11.20;99.90
51579;DHT22;47998;53.242;6.386;2023-02-18T13:17:38;11.10;99.90
51579;DHT22;47998;53.242;6.386;2023-02-18T13:20:15;11.10;99.90
51579;DHT22;47998;53.242;6.386;2023-02-18T13:22:43;11.00;99.90
51579;DHT22;47998;53.242;6.386;2023-02-18T13:25:12;11.00;99.90
51579;DHT22;47998;53.242;6.386;2023-02-18T13:28:11;10.90;99.90
51579;DHT22;47998;53.242;6.386;2023-02-18T13:36:50;11.40;99.90
51579;DHT22;47998;53.242;6.386;2023-02-18T13:39:06;11.10;99.90
51579;DHT22;47998;53.242;6.386;2023-02-18T13:41:41;11.00;99.90
51579;DHT22;47998;53.242;6.386;2023-02-18T13:46:57;11.20;99.90
51579;DHT22;47998;53.242;6.386;2023-02-18T13:49:33;11.20;84.30
51579;DHT22;47998;53.242;6.386;2023-02-18T13:52:01;11.00;99.90
51579;DHT22;47998;53.242;6.386;2023-02-18T13:54:41;10.80;99.90
51579;DHT22;47998;53.242;6.386;2023-02-18T13:57:13;10.90;99.90
51579;DHT22;47998;53.242;6.386;2023-02-18T14:00:22;10.90;99.90
51579;DHT22;47998;53.242;6.386;2023-02-18T14:03:00;10.90;99.90
51579;DHT22;47998;53.242;6.386;2023-02-18T14:05:38;10.90;99.90
51579;DHT22;47998;53.242;6.386;2023-02-18T14:08:15;10.90;99.90
51579;DHT22;47998;53.242;6.386;2023-02-18T14:11:23;11.00;96.10
51579;DHT22;47998;53.242;6.386;2023-02-18T14:13:55;11.00;98.30
51579;DHT22;47998;53.242;6.386;2023-02-18T14:19:38;11.00;99.90
51579;DHT22;47998;53.242;6.386;2023-02-18T14:27:33;10.80;99.90
51579;DHT22;47998;53.242;6.386;2023-02-18T14:30:27;10.20;99.90
51579;DHT22;47998;53.242;6.386;2023-02-18T14:33:01;9.90;99.90
51579;DHT22;47998;53.242;6.386;2023-02-18T14:35:42;10.00;99.90
51579;DHT22;47998;53.242;6.386;2023-02-18T14:49:18;10.20;99.90
51579;DHT22;47998;53.242;6.386;2023-02-18T14:51:47;10.20;99.90
51579;DHT22;47998;53.242;6.386;2023-02-18T14:54:19;10.20;99.90
51579;DHT22;47998;53.242;6.386;2023-02-18T14:57:04;10.30;99.90
51579;DHT22;47998;53.242;6.386;2023-02-18T14:59:35;10.30;99.90
51579;DHT22;47998;53.242;6.386;2023-02-18T15:02:02;10.20;99.90
51579;DHT22;47998;53.242;6.386;2023-02-18T15:04:28;10.20;99.90
51579;DHT22;47998;53.242;6.386;2023-02-18T15:07:02;10.20;99.90
51579;DHT22;47998;53.242;6.386;2023-02-18T15:09:28;10.20;99.90
51579;DHT22;47998;53.242;6.386;2023-02-18T15:12:05;10.20;99.90
51579;DHT22;47998;53.242;6.386;2023-02-18T15:14:38;10.10;99.90
51579;DHT22;47998;53.242;6.386;2023-02-18T15:17:07;10.10;99.90
51579;DHT22;47998;53.242;6.386;2023-02-18T15:19:40;10.10;99.90
51579;DHT22;47998;53.242;6.386;2023-02-18T15:22:18;10.10;99.90
51579;DHT22;47998;53.242;6.386;2023-02-18T15:24:44;10.10;99.90
51579;DHT22;47998;53.242;6.386;2023-02-18T15:27:18;10.10;99.90
51579;DHT22;47998;53.242;6.386;2023-02-18T15:29:53;10.10;99.90
51579;DHT22;47998;53.242;6.386;2023-02-18T15:32:26;10.00;99.90
51579;DHT22;47998;53.242;6.386;2023-02-18T15:35:11;10.00;99.90
51579;DHT22;47998;53.242;6.386;2023-02-18T15:37:44;10.00;99.90
51579;DHT22;47998;53.242;6.386;2023-02-18T15:40:16;9.90;99.90
51579;DHT22;47998;53.242;6.386;2023-02-18T15:42:45;9.90;99.90
51579;DHT22;47998;53.242;6.386;2023-02-18T15:45:32;9.80;99.90
51579;DHT22;47998;53.242;6.386;2023-02-18T15:47:59;9.80;99.90
51579;DHT22;47998;53.242;6.386;2023-02-18T15:50:31;9.70;99.90
51579;DHT22;47998;53.242;6.386;2023-02-18T15:53:05;9.70;99.90
51579;DHT22;47998;53.242;6.386;2023-02-18T15:55:51;9.60;99.90
51579;DHT22;47998;53.242;6.386;2023-02-18T15:58:27;9.60;99.90
51579;DHT22;47998;53.242;6.386;2023-02-18T16:00:56;9.60;99.90
51579;DHT22;47998;53.242;6.386;2023-02-18T16:06:28;9.50;99.90
51579;DHT22;47998;53.242;6.386;2023-02-18T16:08:57;9.50;99.90
51579;DHT22;47998;53.242;6.386;2023-02-18T16:11:25;9.50;99.90
51579;DHT22;47998;53.242;6.386;2023-02-18T16:13:52;9.50;99.90
51579;DHT22;47998;53.242;6.386;2023-02-18T16:16:30;9.40;99.90
51579;DHT22;47998;53.242;6.386;2023-02-18T16:18:58;9.40;99.90
51579;DHT22;47998;53.242;6.386;2023-02-18T16:21:35;9.40;99.90
51579;DHT22;47998;53.242;6.386;2023-02-18T16:24:20;9.30;99.90
51579;DHT22;47998;53.242;6.386;2023-02-18T16:26:49;9.30;99.90
51579;DHT22;47998;53.242;6.386;2023-02-18T16:29:25;9.30;99.90
51579;DHT22;47998;53.242;6.386;2023-02-18T16:31:51;9.30;99.90
51579;DHT22;47998;53.242;6.386;2023-02-18T16:34:17;9.30;99.90
51579;DHT22;47998;53.242;6.386;2023-02-18T16:36:43;9.20;99.90
51579;DHT22;47998;53.242;6.386;2023-02-18T16:39:30;9.20;99.90
51579;DHT22;47998;53.242;6.386;2023-02-18T16:41:57;9.10;99.90
51579;DHT22;47998;53.242;6.386;2023-02-18T16:44:23;9.10;99.90
51579;DHT22;47998;53.242;6.386;2023-02-18T16:46:49;9.20;99.90
51579;DHT22;47998;53.242;6.386;2023-02-18T16:49:15;9.00;99.90
51579;DHT22;47998;53.242;6.386;2023-02-18T16:51:41;9.00;99.90
51579;DHT22;47998;53.242;6.386;2023-02-18T16:54:11;9.00;99.90
51579;DHT22;47998;53.242;6.386;2023-02-18T16:56:38;8.90;99.90
51579;DHT22;47998;53.242;6.386;2023-02-18T16:59:04;8.90;99.90
51579;DHT22;47998;53.242;6.386;2023-02-18T17:01:35;8.90;99.90
51579;DHT22;47998;53.242;6.386;2023-02-18T17:04:04;8.90;99.90
51579;DHT22;47998;53.242;6.386;2023-02-18T17:06:30;8.80;99.90
51579;DHT22;47998;53.242;6.386;2023-02-18T17:08:57;8.90;99.90
51579;DHT22;47998;53.242;6.386;2023-02-18T17:11:25;8.80;99.90
51579;DHT22;47998;53.242;6.386;2023-02-18T17:13:53;8.80;99.90
51579;DHT22;47998;53.242;6.386;2023-02-18T17:16:20;8.80;99.90
51579;DHT22;47998;53.242;6.386;2023-02-18T17:18:46;8.80;99.90
51579;DHT22;47998;53.242;6.386;2023-02-18T17:21:17;8.80;99.90
51579;DHT22;47998;53.242;6.386;2023-02-18T17:23:43;8.80;99.90
51579;DHT22;47998;53.242;6.386;2023-02-18T17:26:15;8.80;99.90
51579;DHT22;47998;53.242;6.386;2023-02-18T17:28:41;8.80;99.90
51579;DHT22;47998;53.242;6.386;2023-02-18T17:31:11;8.80;99.90
51579;DHT22;47998;53.242;6.386;2023-02-18T17:33:38;8.70;99.90
51579;DHT22;47998;53.242;6.386;2023-02-18T17:36:04;8.70;99.90
51579;DHT22;47998;53.242;6.386;2023-02-18T17:38:30;8.70;99.90
51579;DHT22;47998;53.242;6.386;2023-02-18T17:40:57;8.70;99.90
51579;DHT22;47998;53.242;6.386;2023-02-18T17:43:23;8.70;99.90
51579;DHT22;47998;53.242;6.386;2023-02-18T17:45:52;8.70;99.90
51579;DHT22;47998;53.242;6.386;2023-02-18T17:48:18;8.70;99.90
51579;DHT22;47998;53.242;6.386;2023-02-18T17:50:44;8.60;99.90
51579;DHT22;47998;53.242;6.386;2023-02-18T17:53:11;8.60;99.90
51579;DHT22;47998;53.242;6.386;2023-02-18T17:55:38;8.60;99.90
51579;DHT22;47998;53.242;6.386;2023-02-18T17:58:04;8.60;99.90
51579;DHT22;47998;53.242;6.386;2023-02-18T18:00:35;8.60;99.90
51579;DHT22;47998;53.242;6.386;2023-02-18T18:03:01;8.60;99.90
51579;DHT22;47998;53.242;6.386;2023-02-18T18:05:35;8.60;99.90